sensor_id;sensor_type;location;lat;lon;timestamp;P1;durP1;ratioP1;P2;durP2;ratioP2
40757;SDS011;26462;47.384;19.218;2022-12-07T00:01:27;49.17;;;20.27;;
40757;SDS011;26462;47.384;19.218;2022-12-07T00:03:57;50.90;;;19.80;;
40757;SDS011;26462;47.384;19.218;2022-12-07T00:09:00;49.30;;;22.52;;
40757;SDS011;26462;47.384;19.218;2022-12-07T00:11:27;46.75;;;20.42;;
40757;SDS011;26462;47.384;19.218;2022-12-07T00:13:56;50.70;;;20.58;;
40757;SDS011;26462;47.384;19.218;2022-12-07T00:16:26;43.55;;;18.58;;
40757;SDS011;26462;47.384;19.218;2022-12-07T00:18:56;44.00;;;18.58;;
40757;SDS011;26462;47.384;19.218;2022-12-07T00:21:25;46.30;;;20.23;;
40757;SDS011;26462;47.384;19.218;2022-12-07T00:23:54;44.50;;;19.63;;
40757;SDS011;26462;47.384;19.218;2022-12-07T00:28:51;47.78;;;19.48;;
40757;SDS011;26462;47.384;19.218;2022-12-07T00:31:24;49.85;;;20.40;;
40757;SDS011;26462;47.384;19.218;2022-12-07T00:33:52;66.72;;;26.35;;
40757;SDS011;26462;47.384;19.218;2022-12-07T00:36:21;51.45;;;23.15;;
40757;SDS011;26462;47.384;19.218;2022-12-07T00:38:53;52.63;;;20.30;;
40757;SDS011;26462;47.384;19.218;2022-12-07T00:41:22;49.35;;;21.05;;
40757;SDS011;26462;47.384;19.218;2022-12-07T00:43:50;47.50;;;20.80;;
40757;SDS011;26462;47.384;19.218;2022-12-07T00:46:18;47.45;;;20.98;;
40757;SDS011;26462;47.384;19.218;2022-12-07T00:48:47;42.00;;;18.10;;
40757;SDS011;26462;47.384;19.218;2022-12-07T00:51:15;44.85;;;19.73;;
40757;SDS011;26462;47.384;19.218;2022-12-07T00:53:44;46.80;;;19.50;;
40757;SDS011;26462;47.384;19.218;2022-12-07T00:56:12;51.58;;;19.63;;
40757;SDS011;26462;47.384;19.218;2022-12-07T00:58:49;46.78;;;19.73;;
40757;SDS011;26462;47.384;19.218;2022-12-07T01:01:20;51.33;;;19.92;;
40757;SDS011;26462;47.384;19.218;2022-12-07T01:03:48;42.38;;;17.67;;
40757;SDS011;26462;47.384;19.218;2022-12-07T01:06:19;38.25;;;17.48;;
40757;SDS011;26462;47.384;19.218;2022-12-07T01:08:47;42.58;;;16.13;;
40757;SDS011;26462;47.384;19.218;2022-12-07T01:11:17;46.33;;;17.67;;
40757;SDS011;26462;47.384;19.218;2022-12-07T01:13:45;38.83;;;16.77;;
40757;SDS011;26462;47.384;19.218;2022-12-07T01:16:13;36.50;;;15.93;;
40757;SDS011;26462;47.384;19.218;2022-12-07T01:18:42;41.20;;;16.48;;
40757;SDS011;26462;47.384;19.218;2022-12-07T01:21:19;39.45;;;16.23;;
40757;SDS011;26462;47.384;19.218;2022-12-07T01:23:51;38.50;;;15.63;;
40757;SDS011;26462;47.384;19.218;2022-12-07T01:26:20;50.78;;;17.67;;
40757;SDS011;26462;47.384;19.218;2022-12-07T01:28:48;42.55;;;17.52;;
40757;SDS011;26462;47.384;19.218;2022-12-07T01:31:17;44.38;;;17.27;;
40757;SDS011;26462;47.384;19.218;2022-12-07T01:33:47;45.42;;;18.13;;
40757;SDS011;26462;47.384;19.218;2022-12-07T01:38:48;35.67;;;15.43;;
40757;SDS011;26462;47.384;19.218;2022-12-07T01:41:20;44.00;;;16.40;;
40757;SDS011;26462;47.384;19.218;2022-12-07T01:46:56;43.00;;;16.52;;
40757;SDS011;26462;47.384;19.218;2022-12-07T01:52:22;44.22;;;17.83;;
40757;SDS011;26462;47.384;19.218;2022-12-07T01:54:57;41.78;;;16.80;;
40757;SDS011;26462;47.384;19.218;2022-12-07T01:57:31;39.78;;;15.70;;
40757;SDS011;26462;47.384;19.218;2022-12-07T02:00:03;44.83;;;17.63;;
40757;SDS011;26462;47.384;19.218;2022-12-07T02:02:40;41.05;;;16.10;;
40757;SDS011;26462;47.384;19.218;2022-12-07T02:05:17;39.22;;;15.15;;
40757;SDS011;26462;47.384;19.218;2022-12-07T02:07:46;43.55;;;16.35;;
40757;SDS011;26462;47.384;19.218;2022-12-07T02:10:16;43.35;;;16.80;;
40757;SDS011;26462;47.384;19.218;2022-12-07T02:12:47;46.00;;;16.58;;
40757;SDS011;26462;47.384;19.218;2022-12-07T02:15:20;42.25;;;16.50;;
40757;SDS011;26462;47.384;19.218;2022-12-07T02:31:34;51.58;;;18.90;;
40757;SDS011;26462;47.384;19.218;2022-12-07T02:34:05;50.58;;;18.02;;
40757;SDS011;26462;47.384;19.218;2022-12-07T02:39:33;40.10;;;15.68;;
40757;SDS011;26462;47.384;19.218;2022-12-07T02:42:20;43.97;;;15.98;;
40757;SDS011;26462;47.384;19.218;2022-12-07T02:44:53;53.22;;;18.48;;
40757;SDS011;26462;47.384;19.218;2022-12-07T02:47:20;59.45;;;20.55;;
40757;SDS011;26462;47.384;19.218;2022-12-07T02:49:50;55.15;;;18.60;;
40757;SDS011;26462;47.384;19.218;2022-12-07T02:52:18;54.70;;;18.48;;
40757;SDS011;26462;47.384;19.218;2022-12-07T02:54:45;43.90;;;17.23;;
40757;SDS011;26462;47.384;19.218;2022-12-07T03:00:08;45.53;;;18.27;;
40757;SDS011;26462;47.384;19.218;2022-12-07T03:02:52;38.15;;;14.90;;
40757;SDS011;26462;47.384;19.218;2022-12-07T03:08:21;31.98;;;13.77;;
40757;SDS011;26462;47.384;19.218;2022-12-07T03:13:23;33.20;;;13.95;;
40757;SDS011;26462;47.384;19.218;2022-12-07T03:19:02;35.42;;;13.52;;
40757;SDS011;26462;47.384;19.218;2022-12-07T03:21:36;34.25;;;14.13;;
40757;SDS011;26462;47.384;19.218;2022-12-07T03:24:12;28.67;;;13.40;;
40757;SDS011;26462;47.384;19.218;2022-12-07T03:26:47;33.20;;;14.00;;
40757;SDS011;26462;47.384;19.218;2022-12-07T03:29:26;30.33;;;14.23;;
40757;SDS011;26462;47.384;19.218;2022-12-07T03:32:24;32.78;;;14.13;;
40757;SDS011;26462;47.384;19.218;2022-12-07T03:37:38;36.58;;;14.65;;
40757;SDS011;26462;47.384;19.218;2022-12-07T03:41:13;35.75;;;14.57;;
40757;SDS011;26462;47.384;19.218;2022-12-07T03:43:11;42.47;;;16.50;;
40757;SDS011;26462;47.384;19.218;2022-12-07T03:45:40;39.45;;;14.20;;
40757;SDS011;26462;47.384;19.218;2022-12-07T03:48:22;41.35;;;15.52;;
40757;SDS011;26462;47.384;19.218;2022-12-07T03:50:52;42.17;;;14.73;;
40757;SDS011;26462;47.384;19.218;2022-12-07T03:53:37;43.25;;;15.05;;
40757;SDS011;26462;47.384;19.218;2022-12-07T03:56:32;47.95;;;17.05;;
40757;SDS011;26462;47.384;19.218;2022-12-07T03:59:01;47.22;;;15.98;;
40757;SDS011;26462;47.384;19.218;2022-12-07T04:01:28;42.42;;;15.65;;
40757;SDS011;26462;47.384;19.218;2022-12-07T04:03:55;43.70;;;15.45;;
40757;SDS011;26462;47.384;19.218;2022-12-07T04:06:22;44.00;;;15.75;;
40757;SDS011;26462;47.384;19.218;2022-12-07T04:08:49;40.60;;;16.40;;
40757;SDS011;26462;47.384;19.218;2022-12-07T04:11:16;43.40;;;15.88;;
40757;SDS011;26462;47.384;19.218;2022-12-07T04:13:43;35.33;;;16.30;;
40757;SDS011;26462;47.384;19.218;2022-12-07T04:16:29;41.28;;;15.25;;
40757;SDS011;26462;47.384;19.218;2022-12-07T04:18:56;39.35;;;14.55;;
40757;SDS011;26462;47.384;19.218;2022-12-07T04:21:23;31.35;;;13.30;;
40757;SDS011;26462;47.384;19.218;2022-12-07T04:23:50;44.80;;;14.73;;
40757;SDS011;26462;47.384;19.218;2022-12-07T04:26:17;41.10;;;15.18;;
40757;SDS011;26462;47.384;19.218;2022-12-07T04:28:44;42.42;;;15.65;;
40757;SDS011;26462;47.384;19.218;2022-12-07T04:31:11;38.58;;;15.55;;
40757;SDS011;26462;47.384;19.218;2022-12-07T04:33:38;37.00;;;14.57;;
40757;SDS011;26462;47.384;19.218;2022-12-07T04:36:05;40.20;;;16.00;;
40757;SDS011;26462;47.384;19.218;2022-12-07T04:38:32;43.90;;;15.95;;
40757;SDS011;26462;47.384;19.218;2022-12-07T04:41:04;43.55;;;16.90;;
40757;SDS011;26462;47.384;19.218;2022-12-07T04:43:32;48.08;;;16.65;;
40757;SDS011;26462;47.384;19.218;2022-12-07T04:46:00;42.33;;;15.43;;
40757;SDS011;26462;47.384;19.218;2022-12-07T04:48:27;38.45;;;14.65;;
40757;SDS011;26462;47.384;19.218;2022-12-07T04:50:55;45.70;;;16.35;;
40757;SDS011;26462;47.384;19.218;2022-12-07T04:53:22;45.03;;;15.48;;
40757;SDS011;26462;47.384;19.218;2022-12-07T04:55:49;35.47;;;14.32;;
40757;SDS011;26462;47.384;19.218;2022-12-07T04:58:16;39.50;;;14.05;;
40757;SDS011;26462;47.384;19.218;2022-12-07T05:00:43;41.67;;;16.77;;
40757;SDS011;26462;47.384;19.218;2022-12-07T05:03:10;39.58;;;15.90;;
40757;SDS011;26462;47.384;19.218;2022-12-07T05:05:39;45.67;;;15.82;;
40757;SDS011;26462;47.384;19.218;2022-12-07T05:08:08;40.30;;;15.48;;
40757;SDS011;26462;47.384;19.218;2022-12-07T05:10:35;43.67;;;16.05;;
40757;SDS011;26462;47.384;19.218;2022-12-07T05:13:02;40.72;;;17.40;;
40757;SDS011;26462;47.384;19.218;2022-12-07T05:15:29;40.92;;;16.05;;
40757;SDS011;26462;47.384;19.218;2022-12-07T05:17:56;42.22;;;16.70;;
40757;SDS011;26462;47.384;19.218;2022-12-07T05:20:23;38.38;;;15.55;;
40757;SDS011;26462;47.384;19.218;2022-12-07T05:22:50;40.67;;;15.43;;
40757;SDS011;26462;47.384;19.218;2022-12-07T05:25:17;40.42;;;15.80;;
40757;SDS011;26462;47.384;19.218;2022-12-07T05:27:44;37.20;;;16.83;;
40757;SDS011;26462;47.384;19.218;2022-12-07T05:30:11;43.30;;;17.77;;
40757;SDS011;26462;47.384;19.218;2022-12-07T05:32:38;45.72;;;18.10;;
40757;SDS011;26462;47.384;19.218;2022-12-07T05:35:06;41.13;;;15.95;;
40757;SDS011;26462;47.384;19.218;2022-12-07T05:37:33;39.70;;;16.45;;
40757;SDS011;26462;47.384;19.218;2022-12-07T05:40:00;43.15;;;15.75;;
40757;SDS011;26462;47.384;19.218;2022-12-07T05:42:28;39.75;;;15.18;;
40757;SDS011;26462;47.384;19.218;2022-12-07T05:44:55;48.42;;;15.52;;
40757;SDS011;26462;47.384;19.218;2022-12-07T05:47:22;42.63;;;14.98;;
40757;SDS011;26462;47.384;19.218;2022-12-07T05:49:49;46.53;;;17.67;;
40757;SDS011;26462;47.384;19.218;2022-12-07T05:52:16;39.30;;;14.05;;
40757;SDS011;26462;47.384;19.218;2022-12-07T05:54:43;33.97;;;14.25;;
40757;SDS011;26462;47.384;19.218;2022-12-07T05:57:10;33.63;;;14.57;;
40757;SDS011;26462;47.384;19.218;2022-12-07T05:59:37;37.05;;;14.68;;
40757;SDS011;26462;47.384;19.218;2022-12-07T06:02:05;34.20;;;13.88;;
40757;SDS011;26462;47.384;19.218;2022-12-07T06:04:39;30.33;;;13.77;;
40757;SDS011;26462;47.384;19.218;2022-12-07T06:07:08;38.75;;;14.77;;
40757;SDS011;26462;47.384;19.218;2022-12-07T06:09:36;35.83;;;15.65;;
40757;SDS011;26462;47.384;19.218;2022-12-07T06:12:04;38.30;;;14.10;;
40757;SDS011;26462;47.384;19.218;2022-12-07T06:14:50;37.78;;;15.23;;
40757;SDS011;26462;47.384;19.218;2022-12-07T06:17:17;32.47;;;14.45;;
40757;SDS011;26462;47.384;19.218;2022-12-07T06:19:45;34.47;;;15.70;;
40757;SDS011;26462;47.384;19.218;2022-12-07T06:22:12;36.28;;;13.35;;
40757;SDS011;26462;47.384;19.218;2022-12-07T06:24:39;32.58;;;13.98;;
40757;SDS011;26462;47.384;19.218;2022-12-07T06:27:07;33.08;;;13.35;;
40757;SDS011;26462;47.384;19.218;2022-12-07T06:29:34;30.58;;;13.02;;
40757;SDS011;26462;47.384;19.218;2022-12-07T06:32:01;43.85;;;17.20;;
40757;SDS011;26462;47.384;19.218;2022-12-07T06:34:29;36.55;;;15.15;;
40757;SDS011;26462;47.384;19.218;2022-12-07T06:36:56;39.15;;;14.95;;
40757;SDS011;26462;47.384;19.218;2022-12-07T06:39:24;34.33;;;15.60;;
40757;SDS011;26462;47.384;19.218;2022-12-07T06:41:52;38.22;;;14.65;;
40757;SDS011;26462;47.384;19.218;2022-12-07T06:44:20;36.30;;;15.88;;
40757;SDS011;26462;47.384;19.218;2022-12-07T06:46:48;37.53;;;16.55;;
40757;SDS011;26462;47.384;19.218;2022-12-07T06:49:16;48.00;;;17.48;;
40757;SDS011;26462;47.384;19.218;2022-12-07T06:51:43;47.08;;;19.23;;
40757;SDS011;26462;47.384;19.218;2022-12-07T06:54:11;51.10;;;21.60;;
40757;SDS011;26462;47.384;19.218;2022-12-07T06:56:39;53.17;;;22.05;;
40757;SDS011;26462;47.384;19.218;2022-12-07T06:59:07;46.15;;;19.00;;
40757;SDS011;26462;47.384;19.218;2022-12-07T07:01:34;40.15;;;17.33;;
40757;SDS011;26462;47.384;19.218;2022-12-07T07:04:02;46.13;;;19.20;;
40757;SDS011;26462;47.384;19.218;2022-12-07T07:06:29;53.22;;;23.25;;
40757;SDS011;26462;47.384;19.218;2022-12-07T07:08:57;57.92;;;23.60;;
40757;SDS011;26462;47.384;19.218;2022-12-07T07:56:08;69.30;;;27.60;;
40757;SDS011;26462;47.384;19.218;2022-12-07T16:28:56;59.95;;;24.52;;
40757;SDS011;26462;47.384;19.218;2022-12-07T16:31:25;79.82;;;33.17;;
40757;SDS011;26462;47.384;19.218;2022-12-07T16:33:56;79.07;;;32.28;;
40757;SDS011;26462;47.384;19.218;2022-12-07T16:36:24;69.05;;;29.30;;
40757;SDS011;26462;47.384;19.218;2022-12-07T16:39:12;70.53;;;28.92;;
40757;SDS011;26462;47.384;19.218;2022-12-07T16:41:40;54.00;;;22.88;;
40757;SDS011;26462;47.384;19.218;2022-12-07T16:44:09;50.47;;;22.98;;
40757;SDS011;26462;47.384;19.218;2022-12-07T16:46:39;42.85;;;20.90;;
40757;SDS011;26462;47.384;19.218;2022-12-07T16:49:09;69.88;;;31.40;;
40757;SDS011;26462;47.384;19.218;2022-12-07T16:51:38;49.55;;;23.98;;
40757;SDS011;26462;47.384;19.218;2022-12-07T16:54:08;45.05;;;20.55;;
40757;SDS011;26462;47.384;19.218;2022-12-07T16:56:39;43.03;;;17.85;;
40757;SDS011;26462;47.384;19.218;2022-12-07T16:59:06;61.47;;;24.52;;
40757;SDS011;26462;47.384;19.218;2022-12-07T17:01:34;43.53;;;21.90;;
40757;SDS011;26462;47.384;19.218;2022-12-07T17:04:02;44.00;;;21.35;;
40757;SDS011;26462;47.384;19.218;2022-12-07T17:06:31;39.20;;;18.40;;
40757;SDS011;26462;47.384;19.218;2022-12-07T17:08:58;39.33;;;18.17;;
40757;SDS011;26462;47.384;19.218;2022-12-07T17:11:27;44.35;;;18.90;;
40757;SDS011;26462;47.384;19.218;2022-12-07T17:13:57;74.15;;;25.15;;
40757;SDS011;26462;47.384;19.218;2022-12-07T17:16:42;79.78;;;30.33;;
40757;SDS011;26462;47.384;19.218;2022-12-07T17:19:12;79.47;;;33.65;;
40757;SDS011;26462;47.384;19.218;2022-12-07T17:21:41;82.63;;;31.70;;
40757;SDS011;26462;47.384;19.218;2022-12-07T17:24:11;81.80;;;30.63;;
40757;SDS011;26462;47.384;19.218;2022-12-07T17:26:41;69.57;;;26.25;;
40757;SDS011;26462;47.384;19.218;2022-12-07T17:29:10;75.93;;;26.05;;
40757;SDS011;26462;47.384;19.218;2022-12-07T17:31:39;59.33;;;24.52;;
40757;SDS011;26462;47.384;19.218;2022-12-07T17:34:13;62.45;;;24.38;;
40757;SDS011;26462;47.384;19.218;2022-12-07T17:36:44;65.68;;;27.35;;
40757;SDS011;26462;47.384;19.218;2022-12-07T17:39:13;63.35;;;24.63;;
40757;SDS011;26462;47.384;19.218;2022-12-07T17:41:43;68.28;;;25.88;;
40757;SDS011;26462;47.384;19.218;2022-12-07T17:44:48;70.45;;;26.08;;
40757;SDS011;26462;47.384;19.218;2022-12-07T17:47:15;66.85;;;27.48;;
40757;SDS011;26462;47.384;19.218;2022-12-07T17:49:44;67.75;;;27.98;;
40757;SDS011;26462;47.384;19.218;2022-12-07T17:52:15;66.07;;;26.73;;
40757;SDS011;26462;47.384;19.218;2022-12-07T17:55:02;62.83;;;26.45;;
40757;SDS011;26462;47.384;19.218;2022-12-07T17:57:30;60.95;;;25.25;;
40757;SDS011;26462;47.384;19.218;2022-12-07T17:59:57;41.67;;;16.55;;
40757;SDS011;26462;47.384;19.218;2022-12-07T18:02:25;41.78;;;18.92;;
40757;SDS011;26462;47.384;19.218;2022-12-07T18:04:53;40.25;;;15.98;;
40757;SDS011;26462;47.384;19.218;2022-12-07T18:07:20;40.67;;;15.75;;
40757;SDS011;26462;47.384;19.218;2022-12-07T18:09:47;37.67;;;14.95;;
40757;SDS011;26462;47.384;19.218;2022-12-07T18:12:15;39.15;;;16.17;;
40757;SDS011;26462;47.384;19.218;2022-12-07T18:14:42;47.45;;;17.40;;
40757;SDS011;26462;47.384;19.218;2022-12-07T18:17:10;45.85;;;19.33;;
40757;SDS011;26462;47.384;19.218;2022-12-07T18:19:38;44.30;;;18.52;;
40757;SDS011;26462;47.384;19.218;2022-12-07T18:22:06;45.92;;;17.15;;
40757;SDS011;26462;47.384;19.218;2022-12-07T18:24:33;44.15;;;15.88;;
40757;SDS011;26462;47.384;19.218;2022-12-07T18:27:03;47.28;;;17.08;;
40757;SDS011;26462;47.384;19.218;2022-12-07T18:29:31;46.33;;;19.40;;
40757;SDS011;26462;47.384;19.218;2022-12-07T18:31:59;47.33;;;19.15;;
40757;SDS011;26462;47.384;19.218;2022-12-07T18:34:28;46.95;;;18.88;;
40757;SDS011;26462;47.384;19.218;2022-12-07T18:36:56;41.13;;;17.70;;
40757;SDS011;26462;47.384;19.218;2022-12-07T18:39:24;46.10;;;18.05;;
40757;SDS011;26462;47.384;19.218;2022-12-07T18:42:00;48.80;;;18.05;;
40757;SDS011;26462;47.384;19.218;2022-12-07T18:44:31;49.20;;;19.63;;
40757;SDS011;26462;47.384;19.218;2022-12-07T18:46:59;51.70;;;18.30;;
40757;SDS011;26462;47.384;19.218;2022-12-07T18:49:27;49.92;;;19.65;;
40757;SDS011;26462;47.384;19.218;2022-12-07T18:51:57;48.00;;;20.83;;
40757;SDS011;26462;47.384;19.218;2022-12-07T18:54:25;55.72;;;22.67;;
40757;SDS011;26462;47.384;19.218;2022-12-07T18:57:12;53.83;;;23.60;;
40757;SDS011;26462;47.384;19.218;2022-12-07T18:59:39;60.35;;;24.13;;
40757;SDS011;26462;47.384;19.218;2022-12-07T19:02:14;53.30;;;23.08;;
40757;SDS011;26462;47.384;19.218;2022-12-07T19:04:45;55.38;;;21.73;;
40757;SDS011;26462;47.384;19.218;2022-12-07T19:07:13;56.45;;;23.08;;
40757;SDS011;26462;47.384;19.218;2022-12-07T19:09:40;60.63;;;26.15;;
40757;SDS011;26462;47.384;19.218;2022-12-07T19:12:12;63.08;;;26.15;;
40757;SDS011;26462;47.384;19.218;2022-12-07T19:14:40;67.68;;;26.08;;
40757;SDS011;26462;47.384;19.218;2022-12-07T19:17:11;67.20;;;25.15;;
40757;SDS011;26462;47.384;19.218;2022-12-07T19:19:43;79.88;;;31.73;;
40757;SDS011;26462;47.384;19.218;2022-12-07T19:22:17;72.72;;;29.40;;
40757;SDS011;26462;47.384;19.218;2022-12-07T19:24:48;86.18;;;33.38;;
40757;SDS011;26462;47.384;19.218;2022-12-07T19:27:17;84.53;;;33.83;;
40757;SDS011;26462;47.384;19.218;2022-12-07T19:29:47;80.47;;;32.95;;
40757;SDS011;26462;47.384;19.218;2022-12-07T19:32:16;82.85;;;32.78;;
40757;SDS011;26462;47.384;19.218;2022-12-07T19:34:45;81.15;;;32.20;;
40757;SDS011;26462;47.384;19.218;2022-12-07T19:37:14;87.90;;;35.70;;
40757;SDS011;26462;47.384;19.218;2022-12-07T19:39:41;77.40;;;32.42;;
40757;SDS011;26462;47.384;19.218;2022-12-07T19:42:11;74.80;;;32.17;;
40757;SDS011;26462;47.384;19.218;2022-12-07T19:44:39;75.65;;;29.45;;
40757;SDS011;26462;47.384;19.218;2022-12-07T19:47:11;73.82;;;30.38;;
40757;SDS011;26462;47.384;19.218;2022-12-07T19:49:43;77.75;;;28.75;;
40757;SDS011;26462;47.384;19.218;2022-12-07T19:52:14;72.72;;;28.10;;
40757;SDS011;26462;47.384;19.218;2022-12-07T19:54:42;83.00;;;29.80;;
40757;SDS011;26462;47.384;19.218;2022-12-07T19:57:10;74.68;;;31.02;;
40757;SDS011;26462;47.384;19.218;2022-12-07T19:59:42;89.43;;;31.98;;
40757;SDS011;26462;47.384;19.218;2022-12-07T20:02:11;86.90;;;30.95;;
40757;SDS011;26462;47.384;19.218;2022-12-07T20:04:40;90.63;;;33.50;;
40757;SDS011;26462;47.384;19.218;2022-12-07T20:07:09;79.60;;;30.45;;
40757;SDS011;26462;47.384;19.218;2022-12-07T20:09:38;82.82;;;32.33;;
40757;SDS011;26462;47.384;19.218;2022-12-07T20:12:08;85.20;;;32.30;;
40757;SDS011;26462;47.384;19.218;2022-12-07T20:14:58;83.13;;;31.40;;
40757;SDS011;26462;47.384;19.218;2022-12-07T20:17:27;80.15;;;29.65;;
40757;SDS011;26462;47.384;19.218;2022-12-07T20:19:55;83.05;;;32.40;;
40757;SDS011;26462;47.384;19.218;2022-12-07T20:22:23;86.10;;;34.45;;
40757;SDS011;26462;47.384;19.218;2022-12-07T20:24:51;91.22;;;33.10;;
40757;SDS011;26462;47.384;19.218;2022-12-07T20:27:19;95.38;;;35.30;;
40757;SDS011;26462;47.384;19.218;2022-12-07T20:29:48;98.85;;;33.75;;
40757;SDS011;26462;47.384;19.218;2022-12-07T20:32:16;84.50;;;34.97;;
40757;SDS011;26462;47.384;19.218;2022-12-07T20:34:44;100.65;;;35.50;;
40757;SDS011;26462;47.384;19.218;2022-12-07T20:37:12;96.45;;;35.92;;
40757;SDS011;26462;47.384;19.218;2022-12-07T20:39:43;95.97;;;35.40;;
40757;SDS011;26462;47.384;19.218;2022-12-07T20:42:11;96.78;;;36.30;;
40757;SDS011;26462;47.384;19.218;2022-12-07T20:44:58;98.50;;;33.38;;
40757;SDS011;26462;47.384;19.218;2022-12-07T20:47:29;101.50;;;35.88;;
40757;SDS011;26462;47.384;19.218;2022-12-07T20:49:59;99.45;;;36.00;;
40757;SDS011;26462;47.384;19.218;2022-12-07T20:52:28;100.32;;;36.10;;
40757;SDS011;26462;47.384;19.218;2022-12-07T20:54:56;115.28;;;39.42;;
40757;SDS011;26462;47.384;19.218;2022-12-07T20:57:25;107.30;;;40.35;;
40757;SDS011;26462;47.384;19.218;2022-12-07T20:59:53;112.75;;;42.50;;
40757;SDS011;26462;47.384;19.218;2022-12-07T21:02:21;126.65;;;47.38;;
40757;SDS011;26462;47.384;19.218;2022-12-07T21:04:49;125.57;;;44.50;;
40757;SDS011;26462;47.384;19.218;2022-12-07T21:07:16;118.25;;;42.88;;
40757;SDS011;26462;47.384;19.218;2022-12-07T21:09:46;130.57;;;45.67;;
40757;SDS011;26462;47.384;19.218;2022-12-07T21:12:14;118.70;;;43.78;;
40757;SDS011;26462;47.384;19.218;2022-12-07T21:14:42;124.18;;;43.97;;
40757;SDS011;26462;47.384;19.218;2022-12-07T21:17:09;117.97;;;42.92;;
40757;SDS011;26462;47.384;19.218;2022-12-07T21:19:37;127.70;;;45.67;;
40757;SDS011;26462;47.384;19.218;2022-12-07T21:22:04;115.00;;;43.50;;
40757;SDS011;26462;47.384;19.218;2022-12-07T21:24:32;145.85;;;48.50;;
40757;SDS011;26462;47.384;19.218;2022-12-07T21:26:59;134.27;;;48.00;;
40757;SDS011;26462;47.384;19.218;2022-12-07T21:29:26;137.95;;;48.60;;
40757;SDS011;26462;47.384;19.218;2022-12-07T21:32:09;162.05;;;54.03;;
40757;SDS011;26462;47.384;19.218;2022-12-07T21:34:37;175.48;;;59.53;;
40757;SDS011;26462;47.384;19.218;2022-12-07T21:37:04;178.43;;;56.80;;
40757;SDS011;26462;47.384;19.218;2022-12-07T21:39:31;151.30;;;54.53;;
40757;SDS011;26462;47.384;19.218;2022-12-07T21:41:58;158.48;;;55.90;;
40757;SDS011;26462;47.384;19.218;2022-12-07T21:44:25;129.52;;;49.55;;
40757;SDS011;26462;47.384;19.218;2022-12-07T21:46:52;146.90;;;50.72;;
40757;SDS011;26462;47.384;19.218;2022-12-07T21:49:20;152.48;;;52.00;;
40757;SDS011;26462;47.384;19.218;2022-12-07T21:51:47;151.13;;;53.72;;
40757;SDS011;26462;47.384;19.218;2022-12-07T21:54:14;159.85;;;53.25;;
40757;SDS011;26462;47.384;19.218;2022-12-07T21:56:41;151.07;;;55.92;;
40757;SDS011;26462;47.384;19.218;2022-12-07T21:59:11;150.05;;;51.38;;
40757;SDS011;26462;47.384;19.218;2022-12-07T22:01:41;154.60;;;51.70;;
40757;SDS011;26462;47.384;19.218;2022-12-07T22:04:17;147.77;;;53.50;;
40757;SDS011;26462;47.384;19.218;2022-12-07T22:06:46;147.90;;;51.08;;
40757;SDS011;26462;47.384;19.218;2022-12-07T22:09:14;127.68;;;46.58;;
40757;SDS011;26462;47.384;19.218;2022-12-07T22:11:44;140.45;;;47.45;;
40757;SDS011;26462;47.384;19.218;2022-12-07T22:14:12;134.75;;;48.97;;
40757;SDS011;26462;47.384;19.218;2022-12-07T22:17:14;128.20;;;44.17;;
40757;SDS011;26462;47.384;19.218;2022-12-07T22:19:41;122.35;;;41.30;;
40757;SDS011;26462;47.384;19.218;2022-12-07T22:22:11;125.05;;;43.33;;
40757;SDS011;26462;47.384;19.218;2022-12-07T22:24:42;127.53;;;43.85;;
40757;SDS011;26462;47.384;19.218;2022-12-07T22:27:10;114.47;;;42.53;;
40757;SDS011;26462;47.384;19.218;2022-12-07T22:29:42;112.10;;;40.45;;
40757;SDS011;26462;47.384;19.218;2022-12-07T22:32:11;110.55;;;39.38;;
40757;SDS011;26462;47.384;19.218;2022-12-07T22:34:59;104.43;;;37.92;;
40757;SDS011;26462;47.384;19.218;2022-12-07T22:37:27;103.57;;;37.42;;
40757;SDS011;26462;47.384;19.218;2022-12-07T22:39:54;114.68;;;39.72;;
40757;SDS011;26462;47.384;19.218;2022-12-07T22:42:21;100.32;;;38.72;;
40757;SDS011;26462;47.384;19.218;2022-12-07T22:44:48;102.78;;;38.40;;
40757;SDS011;26462;47.384;19.218;2022-12-07T22:47:18;98.75;;;36.05;;
40757;SDS011;26462;47.384;19.218;2022-12-07T22:49:46;99.07;;;33.78;;
40757;SDS011;26462;47.384;19.218;2022-12-07T22:52:13;82.00;;;30.90;;
40757;SDS011;26462;47.384;19.218;2022-12-07T22:54:41;77.93;;;29.20;;
40757;SDS011;26462;47.384;19.218;2022-12-07T22:57:08;72.10;;;27.73;;
40757;SDS011;26462;47.384;19.218;2022-12-07T22:59:35;67.35;;;25.88;;
40757;SDS011;26462;47.384;19.218;2022-12-07T23:02:02;72.20;;;26.55;;
40757;SDS011;26462;47.384;19.218;2022-12-07T23:04:30;63.28;;;24.52;;
40757;SDS011;26462;47.384;19.218;2022-12-07T23:06:57;60.20;;;21.75;;
40757;SDS011;26462;47.384;19.218;2022-12-07T23:09:24;60.63;;;22.38;;
40757;SDS011;26462;47.384;19.218;2022-12-07T23:11:51;63.58;;;24.70;;
40757;SDS011;26462;47.384;19.218;2022-12-07T23:14:37;68.28;;;25.52;;
40757;SDS011;26462;47.384;19.218;2022-12-07T23:17:04;59.00;;;22.30;;
40757;SDS011;26462;47.384;19.218;2022-12-07T23:19:31;58.53;;;22.52;;
40757;SDS011;26462;47.384;19.218;2022-12-07T23:21:58;60.58;;;22.77;;
40757;SDS011;26462;47.384;19.218;2022-12-07T23:24:25;64.68;;;22.48;;
40757;SDS011;26462;47.384;19.218;2022-12-07T23:26:53;66.22;;;22.30;;
40757;SDS011;26462;47.384;19.218;2022-12-07T23:29:20;59.15;;;23.20;;
40757;SDS011;26462;47.384;19.218;2022-12-07T23:31:47;58.38;;;21.95;;
40757;SDS011;26462;47.384;19.218;2022-12-07T23:34:15;69.80;;;24.15;;
40757;SDS011;26462;47.384;19.218;2022-12-07T23:36:43;65.75;;;26.83;;
40757;SDS011;26462;47.384;19.218;2022-12-07T23:39:10;75.68;;;26.95;;
40757;SDS011;26462;47.384;19.218;2022-12-07T23:41:37;79.22;;;25.27;;
40757;SDS011;26462;47.384;19.218;2022-12-07T23:44:04;65.07;;;23.77;;
40757;SDS011;26462;47.384;19.218;2022-12-07T23:46:32;64.82;;;23.92;;
40757;SDS011;26462;47.384;19.218;2022-12-07T23:49:00;63.80;;;25.73;;
40757;SDS011;26462;47.384;19.218;2022-12-07T23:51:29;60.10;;;26.20;;
40757;SDS011;26462;47.384;19.218;2022-12-07T23:53:57;73.95;;;24.83;;
40757;SDS011;26462;47.384;19.218;2022-12-07T23:56:27;63.60;;;24.27;;
40757;SDS011;26462;47.384;19.218;2022-12-07T23:58:56;61.42;;;23.42;;
